createdAt,value
2018-02-18T00:00:06.290Z,42.30
2018-02-18T00:01:06.269Z,45.50
2018-02-18T00:02:06.239Z,43.10
2018-02-18T00:03:06.216Z,44.80
2018-02-18T00:04:06.190Z,45.30
2018-02-18T00:05:06.175Z,45.50
2018-02-18T00:06:06.252Z,44.70
2018-02-18T00:07:06.121Z,44.90
2018-02-18T00:08:06.112Z,46.80
2018-02-18T00:09:06.082Z,47.30
2018-02-18T00:10:06.054Z,49.30
2018-02-18T00:11:06.028Z,46.60
2018-02-18T00:12:06.009Z,47.40
2018-02-18T00:13:05.995Z,47.10
2018-02-18T00:14:05.974Z,45.70
2018-02-18T00:15:05.939Z,47.50
2018-02-18T00:16:05.969Z,49.60
2018-02-18T00:17:05.893Z,47.60
2018-02-18T00:18:05.888Z,48.10
2018-02-18T00:19:05.844Z,48.30
2018-02-18T00:20:05.820Z,47.30
2018-02-18T00:21:05.800Z,49.00
2018-02-18T00:22:05.771Z,49.00
2018-02-18T00:23:05.749Z,47.60
2018-02-18T00:24:05.732Z,48.60
2018-02-18T00:25:05.705Z,47.10
2018-02-18T00:26:05.685Z,53.20
2018-02-18T00:27:05.663Z,63.40
2018-02-18T00:28:05.644Z,57.90
2018-02-18T00:29:05.610Z,55.00
2018-02-18T00:30:05.584Z,58.90
2018-02-18T00:31:05.580Z,49.60
2018-02-18T00:32:05.547Z,48.40
2018-02-18T00:33:05.514Z,50.10
2018-02-18T00:34:05.496Z,49.50
2018-02-18T00:35:05.477Z,49.40
2018-02-18T00:36:05.448Z,49.50
2018-02-18T00:37:05.423Z,49.60
2018-02-18T00:38:05.401Z,50.50
2018-02-18T00:39:05.376Z,49.30
2018-02-18T00:40:05.355Z,47.00
2018-02-18T00:41:05.329Z,50.10
2018-02-18T00:42:05.308Z,50.30
2018-02-18T00:43:05.282Z,48.60
2018-02-18T00:44:05.258Z,50.60
2018-02-18T00:45:05.236Z,48.70
2018-02-18T00:46:05.211Z,49.40
2018-02-18T00:47:05.190Z,49.40
2018-02-18T00:48:05.166Z,50.20
2018-02-18T00:49:05.143Z,51.40
2018-02-18T00:50:05.122Z,49.90
2018-02-18T00:51:05.096Z,51.30
2018-02-18T00:52:05.076Z,48.80
2018-02-18T00:53:05.057Z,48.40
2018-02-18T00:54:05.025Z,49.50
2018-02-18T00:55:05.008Z,50.00
2018-02-18T00:56:04.977Z,52.00
2018-02-18T00:57:04.954Z,50.70
2018-02-18T00:58:04.930Z,47.90
2018-02-18T00:59:04.916Z,49.40
2018-02-18T01:00:04.886Z,49.50
2018-02-18T01:01:04.859Z,49.50
2018-02-18T01:02:04.846Z,47.30
2018-02-18T01:03:04.819Z,49.10
2018-02-18T01:04:04.800Z,47.70
2018-02-18T01:05:04.771Z,48.20
2018-02-18T01:06:04.757Z,47.20
2018-02-18T01:07:04.722Z,45.00
2018-02-18T01:08:04.700Z,47.30
2018-02-18T01:09:04.673Z,46.60
2018-02-18T01:10:04.648Z,47.60
2018-02-18T01:11:04.629Z,48.70
2018-02-18T01:12:04.600Z,48.00
2018-02-18T01:13:04.580Z,46.60
2018-02-18T01:14:04.560Z,46.80
2018-02-18T01:15:04.530Z,47.50
2018-02-18T01:16:04.506Z,46.50
2018-02-18T01:17:04.481Z,47.10
2018-02-18T01:18:04.461Z,47.00
2018-02-18T01:19:04.438Z,47.90
2018-02-18T01:20:04.410Z,45.90
2018-02-18T01:21:04.386Z,46.30
2018-02-18T01:22:04.370Z,47.60
2018-02-18T01:23:04.350Z,43.90
2018-02-18T01:24:04.320Z,46.00
2018-02-18T01:25:04.300Z,46.60
2018-02-18T01:26:04.271Z,46.60
2018-02-18T01:27:04.249Z,47.90
2018-02-18T01:28:04.231Z,47.10
2018-02-18T01:29:04.212Z,48.10
2018-02-18T01:30:04.176Z,46.60
2018-02-18T01:31:04.152Z,48.20
2018-02-18T01:32:04.128Z,46.10
2018-02-18T01:33:04.107Z,46.50
2018-02-18T01:34:04.085Z,47.60
2018-02-18T01:35:04.065Z,47.10
2018-02-18T01:36:04.039Z,47.80
2018-02-18T01:37:04.010Z,47.10
2018-02-18T01:38:04.025Z,48.20
2018-02-18T01:39:03.965Z,49.10
2018-02-18T01:40:03.941Z,48.00
2018-02-18T01:41:03.913Z,45.90
2018-02-18T01:42:03.895Z,48.30
2018-02-18T01:43:03.871Z,46.70
2018-02-18T01:44:03.847Z,47.10
2018-02-18T01:45:03.818Z,47.30
2018-02-18T01:46:03.799Z,45.50
2018-02-18T01:47:03.772Z,47.30
2018-02-18T01:48:03.750Z,44.50
2018-02-18T01:49:03.726Z,47.80
2018-02-18T01:50:03.701Z,46.40
2018-02-18T01:51:03.682Z,43.40
2018-02-18T01:52:03.662Z,47.00
2018-02-18T01:53:03.632Z,47.50
2018-02-18T01:54:03.861Z,43.90
2018-02-18T01:55:03.585Z,45.80
2018-02-18T01:56:03.560Z,47.20
2018-02-18T01:57:03.538Z,45.60
2018-02-18T01:58:03.510Z,45.10
2018-02-18T01:59:03.489Z,48.80
2018-02-18T02:00:03.479Z,47.00
2018-02-18T02:01:03.455Z,47.30
2018-02-18T02:02:03.416Z,46.20
2018-02-18T02:03:03.394Z,46.00
2018-02-18T02:04:03.371Z,45.60
2018-02-18T02:05:03.352Z,44.70
2018-02-18T02:06:03.329Z,42.30
2018-02-18T02:07:03.298Z,45.40
2018-02-18T02:08:03.278Z,45.90
2018-02-18T02:09:03.251Z,44.90
2018-02-18T02:10:03.229Z,47.40
2018-02-18T02:11:03.206Z,46.90
2018-02-18T02:12:03.180Z,46.20
2018-02-18T02:13:03.169Z,45.60
2018-02-18T02:14:03.130Z,46.80
2018-02-18T02:15:03.160Z,46.80
2018-02-18T02:16:03.091Z,48.20
2018-02-18T02:17:03.144Z,47.10
2018-02-18T02:18:03.041Z,47.10
2018-02-18T02:19:03.016Z,48.30
2018-02-18T02:20:02.990Z,47.80
2018-02-18T02:21:03.019Z,50.00
2018-02-18T02:22:02.942Z,49.70
2018-02-18T02:23:02.981Z,47.80
2018-02-18T02:24:02.901Z,50.80
2018-02-18T02:25:02.970Z,51.20
2018-02-18T02:26:02.850Z,53.00
2018-02-18T02:27:02.828Z,57.50
2018-02-18T02:28:02.800Z,58.60
2018-02-18T02:29:02.862Z,57.80
2018-02-18T02:30:02.750Z,58.20
2018-02-18T02:31:02.888Z,56.20
2018-02-18T02:32:02.704Z,56.30
2018-02-18T02:33:02.682Z,54.60
2018-02-18T02:34:02.660Z,55.80
2018-02-18T02:35:02.650Z,54.20
2018-02-18T02:36:02.702Z,53.50
2018-02-18T02:37:02.588Z,52.80
2018-02-18T02:38:02.560Z,52.70
2018-02-18T02:39:02.541Z,55.90
2018-02-18T02:40:02.518Z,53.00
2018-02-18T02:41:02.501Z,51.90
2018-02-18T02:42:02.470Z,49.20
2018-02-18T02:43:02.442Z,49.60
2018-02-18T02:44:02.419Z,50.50
2018-02-18T02:45:02.403Z,48.00
2018-02-18T02:46:02.376Z,48.60
2018-02-18T02:47:02.347Z,48.30
2018-02-18T02:48:02.333Z,49.00
2018-02-18T02:49:02.304Z,51.00
2018-02-18T02:50:02.274Z,48.80
2018-02-18T02:51:02.251Z,50.50
2018-02-18T02:52:02.235Z,48.90
2018-02-18T02:53:02.213Z,48.70
2018-02-18T02:54:02.178Z,48.20
2018-02-18T02:55:02.156Z,50.30
2018-02-18T02:56:02.130Z,52.20
2018-02-18T02:57:02.105Z,50.60
2018-02-18T02:58:02.088Z,52.20
2018-02-18T02:59:02.063Z,52.10
2018-02-18T03:00:02.031Z,51.30
2018-02-18T03:01:02.009Z,50.40
2018-02-18T03:02:01.983Z,51.30
2018-02-18T03:03:01.967Z,49.30
2018-02-18T03:04:01.946Z,52.80
2018-02-18T03:05:01.917Z,50.10
2018-02-18T03:06:01.892Z,49.50
2018-02-18T03:07:01.872Z,50.00
2018-02-18T03:08:01.856Z,48.90
2018-02-18T03:09:01.861Z,48.50
2018-02-18T03:10:01.791Z,49.40
2018-02-18T03:11:01.772Z,47.30
2018-02-18T03:12:01.747Z,46.60
2018-02-18T03:13:01.721Z,50.30
2018-02-18T03:14:01.708Z,49.40
2018-02-18T03:15:01.679Z,49.40
2018-02-18T03:16:01.650Z,49.20
2018-02-18T03:17:01.627Z,48.60
2018-02-18T03:18:01.600Z,48.80
2018-02-18T03:19:01.574Z,49.90
2018-02-18T03:20:01.555Z,49.90
2018-02-18T03:21:01.527Z,49.40
2018-02-18T03:22:01.512Z,49.90
2018-02-18T03:23:01.480Z,49.30
2018-02-18T03:24:01.456Z,49.00
2018-02-18T03:25:01.434Z,48.40
2018-02-18T03:26:01.406Z,49.90
2018-02-18T03:27:01.392Z,48.50
2018-02-18T03:28:01.360Z,48.80
2018-02-18T03:29:01.336Z,47.30
2018-02-18T03:30:01.316Z,47.80
2018-02-18T03:31:01.300Z,50.40
2018-02-18T03:32:01.271Z,47.70
2018-02-18T03:33:01.247Z,48.20
2018-02-18T03:34:01.262Z,47.40
2018-02-18T03:35:01.192Z,48.60
2018-02-18T03:36:01.171Z,49.70
2018-02-18T03:37:01.143Z,50.80
2018-02-18T03:38:01.121Z,51.50
2018-02-18T03:39:01.100Z,51.60
2018-02-18T03:40:01.072Z,59.10
2018-02-18T03:41:01.045Z,62.10
2018-02-18T03:42:01.022Z,81.30
2018-02-18T03:43:01.003Z,72.80
2018-02-18T03:44:01.026Z,67.90
2018-02-18T03:45:00.946Z,61.20
2018-02-18T03:46:00.982Z,57.20
2018-02-18T03:47:00.902Z,56.70
2018-02-18T03:48:00.932Z,55.10
2018-02-18T03:49:00.853Z,54.00
2018-02-18T03:50:00.828Z,54.30
2018-02-18T03:51:00.810Z,53.60
2018-02-18T03:52:00.797Z,51.80
2018-02-18T03:53:00.756Z,54.30
2018-02-18T03:54:00.782Z,52.70
2018-02-18T03:55:00.713Z,51.70
2018-02-18T03:56:00.686Z,49.90
2018-02-18T03:57:00.661Z,48.50
2018-02-18T03:58:00.637Z,47.30
2018-02-18T03:59:00.608Z,47.50
2018-02-18T04:00:00.590Z,48.10
2018-02-18T04:01:00.559Z,48.80
2018-02-18T04:02:00.537Z,48.50
2018-02-18T04:03:00.512Z,47.60
2018-02-18T04:04:00.488Z,46.10
2018-02-18T04:05:00.464Z,46.70
2018-02-18T04:06:00.440Z,46.20
2018-02-18T04:07:00.416Z,46.40
2018-02-18T04:08:00.392Z,46.10
2018-02-18T04:09:00.368Z,46.40
2018-02-18T04:10:00.344Z,47.00
2018-02-18T04:11:00.322Z,46.70
2018-02-18T04:12:00.298Z,46.50
2018-02-18T04:13:00.270Z,47.60
2018-02-18T04:14:00.248Z,47.00
2018-02-18T04:15:00.222Z,47.00
2018-02-18T04:16:00.200Z,48.30
2018-02-18T04:17:00.180Z,48.40
2018-02-18T04:18:00.150Z,46.90
2018-02-18T04:19:00.133Z,47.40
2018-02-18T04:20:00.112Z,47.50
2018-02-18T04:21:00.078Z,46.40
2018-02-18T04:22:00.067Z,44.80
2018-02-18T04:23:00.031Z,47.20
2018-02-18T04:24:00.006Z,46.00
2018-02-18T04:24:59.984Z,48.80
2018-02-18T04:25:59.960Z,47.20
2018-02-18T04:26:59.934Z,46.80
2018-02-18T04:27:59.921Z,47.40
2018-02-18T04:28:59.883Z,47.00
2018-02-18T04:29:59.861Z,46.60
2018-02-18T04:30:59.842Z,47.40
2018-02-18T04:31:59.816Z,47.30
2018-02-18T04:32:59.789Z,46.20
2018-02-18T04:33:59.763Z,47.30
2018-02-18T04:34:59.735Z,46.30
2018-02-18T04:35:59.712Z,45.70
2018-02-18T04:36:59.691Z,44.30
2018-02-18T04:37:59.666Z,46.00
2018-02-18T04:38:59.638Z,47.20
2018-02-18T04:39:59.623Z,46.20
2018-02-18T04:40:59.591Z,45.90
2018-02-18T04:41:59.570Z,46.60
2018-02-18T04:42:59.542Z,46.70
2018-02-18T04:43:59.522Z,47.10
2018-02-18T04:44:59.501Z,44.60
2018-02-18T04:45:59.472Z,46.60
2018-02-18T04:46:59.452Z,46.00
2018-02-18T04:47:59.423Z,45.80
2018-02-18T04:48:59.398Z,45.70
2018-02-18T04:49:59.372Z,46.70
2018-02-18T04:50:59.352Z,45.70
2018-02-18T04:51:59.330Z,47.30
2018-02-18T04:52:59.309Z,45.30
2018-02-18T04:53:59.278Z,45.90
2018-02-18T04:54:59.248Z,45.50
2018-02-18T04:55:59.232Z,46.20
2018-02-18T04:56:59.201Z,46.80
2018-02-18T04:57:59.175Z,45.50
2018-02-18T04:58:59.150Z,47.30
2018-02-18T04:59:59.133Z,45.50
2018-02-18T05:00:59.100Z,45.40
2018-02-18T05:01:59.078Z,46.40
2018-02-18T05:02:59.052Z,45.30
2018-02-18T05:03:59.033Z,46.00
2018-02-18T05:04:59.010Z,47.00
2018-02-18T05:05:58.980Z,46.20
2018-02-18T05:06:58.956Z,46.30
2018-02-18T05:07:58.932Z,44.40
2018-02-18T05:08:58.912Z,44.70
2018-02-18T05:09:58.881Z,43.40
2018-02-18T05:10:58.866Z,44.90
2018-02-18T05:11:58.835Z,42.90
2018-02-18T05:12:58.810Z,43.50
2018-02-18T05:13:58.787Z,44.00
2018-02-18T05:14:58.760Z,43.30
2018-02-18T05:15:58.739Z,43.10
2018-02-18T05:16:58.712Z,44.10
2018-02-18T05:17:58.692Z,44.80
2018-02-18T05:18:58.661Z,44.50
2018-02-18T05:19:58.639Z,43.80
2018-02-18T05:20:58.614Z,42.80
2018-02-18T05:21:58.595Z,43.80
2018-02-18T05:22:58.567Z,42.60
2018-02-18T05:23:58.539Z,43.80
2018-02-18T05:24:58.530Z,43.60
2018-02-18T05:25:58.490Z,43.80
2018-02-18T05:26:58.466Z,42.90
2018-02-18T05:27:58.445Z,43.00
2018-02-18T05:28:58.424Z,46.10
2018-02-18T05:29:58.391Z,43.30
2018-02-18T05:30:58.366Z,43.50
2018-02-18T05:31:58.350Z,43.80
2018-02-18T05:32:58.323Z,44.90
2018-02-18T05:33:58.298Z,43.80
2018-02-18T05:34:58.270Z,42.60
2018-02-18T05:35:58.245Z,44.50
2018-02-18T05:36:58.221Z,43.70
2018-02-18T05:37:58.201Z,43.50
2018-02-18T05:38:58.215Z,43.50
2018-02-18T05:39:58.149Z,41.90
2018-02-18T05:40:58.123Z,43.30
2018-02-18T05:41:58.101Z,45.30
2018-02-18T05:42:58.075Z,43.90
2018-02-18T05:43:58.052Z,44.60
2018-02-18T05:44:58.031Z,45.00
2018-02-18T05:45:58.001Z,44.60
2018-02-18T05:46:57.991Z,45.60
2018-02-18T05:47:57.949Z,46.00
2018-02-18T05:48:57.925Z,47.20
2018-02-18T05:49:57.905Z,47.50
2018-02-18T05:50:57.877Z,45.30
2018-02-18T05:51:57.853Z,45.90
2018-02-18T05:52:57.835Z,46.50
2018-02-18T05:53:57.811Z,46.60
2018-02-18T05:54:57.780Z,46.20
2018-02-18T05:55:57.759Z,45.40
2018-02-18T05:56:57.731Z,46.30
2018-02-18T05:57:57.721Z,46.80
2018-02-18T05:58:57.681Z,45.90
2018-02-18T05:59:57.660Z,45.40
2018-02-18T06:00:57.641Z,46.20
2018-02-18T06:01:57.610Z,46.80
2018-02-18T06:02:57.589Z,46.20
2018-02-18T06:03:57.563Z,45.60
2018-02-18T06:04:57.538Z,46.50
2018-02-18T06:05:57.511Z,44.60
2018-02-18T06:06:57.489Z,46.30
2018-02-18T06:07:57.464Z,43.90
2018-02-18T06:08:57.441Z,42.90
2018-02-18T06:09:57.417Z,43.80
2018-02-18T06:10:57.391Z,45.00
2018-02-18T06:11:57.370Z,44.60
2018-02-18T06:12:57.339Z,45.60
2018-02-18T06:13:57.316Z,45.80
2018-02-18T06:14:57.288Z,44.40
2018-02-18T06:15:57.263Z,43.70
2018-02-18T06:16:57.238Z,44.80
2018-02-18T06:17:57.222Z,44.70
2018-02-18T06:18:57.189Z,43.10
2018-02-18T06:19:57.165Z,44.60
2018-02-18T06:20:57.145Z,43.70
2018-02-18T06:21:57.119Z,44.80
2018-02-18T06:22:57.096Z,45.30
2018-02-18T06:23:57.070Z,44.00
2018-02-18T06:24:57.044Z,44.60
2018-02-18T06:25:57.021Z,44.80
2018-02-18T06:26:57.001Z,46.20
2018-02-18T06:27:56.976Z,44.20
2018-02-18T06:28:56.947Z,44.90
2018-02-18T06:29:56.920Z,43.80
2018-02-18T06:30:56.900Z,44.20
2018-02-18T06:31:56.872Z,44.10
2018-02-18T06:32:56.849Z,44.00
2018-02-18T06:33:56.831Z,44.20
2018-02-18T06:34:56.800Z,45.10
2018-02-18T06:35:56.776Z,43.60
2018-02-18T06:36:56.746Z,44.30
2018-02-18T06:37:56.729Z,43.60
2018-02-18T06:38:56.699Z,43.70
2018-02-18T06:39:56.681Z,43.40
2018-02-18T06:40:56.648Z,44.00
2018-02-18T06:41:56.628Z,42.90
2018-02-18T06:42:56.602Z,43.60
2018-02-18T06:43:56.578Z,44.50
2018-02-18T06:44:56.550Z,44.10
2018-02-18T06:45:56.529Z,45.40
2018-02-18T06:46:56.505Z,46.50
2018-02-18T06:47:56.530Z,47.20
2018-02-18T06:48:56.460Z,46.60
2018-02-18T06:49:56.480Z,45.50
2018-02-18T06:50:56.412Z,44.30
2018-02-18T06:51:56.433Z,44.50
2018-02-18T06:52:56.354Z,44.80
2018-02-18T06:53:56.334Z,44.40
2018-02-18T06:54:56.306Z,44.30
2018-02-18T06:55:56.337Z,45.30
2018-02-18T06:56:56.261Z,45.70
2018-02-18T06:57:56.337Z,46.70
2018-02-18T06:58:56.209Z,45.00
2018-02-18T06:59:56.387Z,44.30
2018-02-18T07:00:56.171Z,44.90
2018-02-18T07:01:56.192Z,43.80
2018-02-18T07:02:56.110Z,45.10
2018-02-18T07:03:56.140Z,43.40
2018-02-18T07:04:56.065Z,42.60
2018-02-18T07:05:56.043Z,44.40
2018-02-18T07:06:56.015Z,44.10
2018-02-18T07:07:55.994Z,44.40
2018-02-18T07:08:55.967Z,42.00
2018-02-18T07:09:55.947Z,42.40
2018-02-18T07:10:55.928Z,40.90
2018-02-18T07:11:55.997Z,41.80
2018-02-18T07:12:55.877Z,39.30
2018-02-18T07:13:55.864Z,38.20
2018-02-18T07:14:55.833Z,37.90
2018-02-18T07:15:55.933Z,38.30
2018-02-18T07:16:55.800Z,36.90
2018-02-18T07:17:55.790Z,36.10
2018-02-18T07:18:55.747Z,37.60
2018-02-18T07:19:55.780Z,37.10
2018-02-18T07:20:55.730Z,37.70
2018-02-18T07:21:55.734Z,37.10
2018-02-18T07:22:55.735Z,37.20
2018-02-18T07:23:55.653Z,37.50
2018-02-18T07:24:55.630Z,36.40
2018-02-18T07:25:55.614Z,35.30
2018-02-18T07:26:55.601Z,37.70
2018-02-18T07:27:55.576Z,36.60
2018-02-18T07:28:55.562Z,36.20
2018-02-18T07:29:55.544Z,36.90
2018-02-18T07:30:55.529Z,37.10
2018-02-18T07:31:55.524Z,37.90
2018-02-18T07:32:55.498Z,37.50
2018-02-18T07:33:55.480Z,36.60
2018-02-18T07:34:55.479Z,36.70
2018-02-18T07:35:55.443Z,36.40
2018-02-18T07:36:55.432Z,35.70
2018-02-18T07:37:55.420Z,36.70
2018-02-18T07:38:55.399Z,35.80
2018-02-18T07:39:55.388Z,38.10
2018-02-18T07:40:55.371Z,35.50
2018-02-18T07:41:55.367Z,35.10
2018-02-18T07:42:55.353Z,35.20
2018-02-18T07:43:55.330Z,35.20
2018-02-18T07:44:55.317Z,36.20
2018-02-18T07:45:55.301Z,35.80
2018-02-18T07:46:55.288Z,36.60
2018-02-18T07:47:55.282Z,35.50
2018-02-18T07:48:55.262Z,35.30
2018-02-18T07:49:55.256Z,34.70
2018-02-18T07:50:55.245Z,36.70
2018-02-18T07:51:55.232Z,35.80
2018-02-18T07:52:55.218Z,35.90
2018-02-18T07:53:55.207Z,36.50
2018-02-18T07:54:55.193Z,37.40
2018-02-18T07:55:55.185Z,36.90
2018-02-18T07:56:55.172Z,35.60
2018-02-18T07:57:55.164Z,34.20
2018-02-18T07:58:55.154Z,35.90
2018-02-18T07:59:55.145Z,35.50
2018-02-18T08:00:55.133Z,34.90
2018-02-18T08:01:55.122Z,34.90
2018-02-18T08:02:55.111Z,36.60
2018-02-18T08:03:55.112Z,35.00
2018-02-18T08:04:55.092Z,34.80
2018-02-18T08:05:55.097Z,34.40
2018-02-18T08:06:55.070Z,34.20
2018-02-18T08:07:55.065Z,34.80
2018-02-18T08:08:55.064Z,34.20
2018-02-18T08:09:55.046Z,34.20
2018-02-18T08:10:55.039Z,33.20
2018-02-18T08:11:55.030Z,32.70
2018-02-18T08:12:55.020Z,33.30
2018-02-18T08:13:55.016Z,32.60
2018-02-18T08:14:55.003Z,32.10
2018-02-18T08:15:55.003Z,31.60
2018-02-18T08:16:54.985Z,31.80
2018-02-18T08:17:54.983Z,32.10
2018-02-18T08:18:54.980Z,32.50
2018-02-18T08:19:54.965Z,32.70
2018-02-18T08:20:54.970Z,32.40
2018-02-18T08:21:54.946Z,31.70
2018-02-18T08:22:54.940Z,30.70
2018-02-18T08:23:54.930Z,31.80
2018-02-18T08:24:54.927Z,31.10
2018-02-18T08:25:54.923Z,31.80
2018-02-18T08:26:54.910Z,31.50
2018-02-18T08:27:54.902Z,31.40
2018-02-18T08:28:54.900Z,30.90
2018-02-18T08:29:54.885Z,32.20
2018-02-18T08:30:54.877Z,32.00
2018-02-18T08:31:54.870Z,31.90
2018-02-18T08:32:54.913Z,31.20
2018-02-18T08:33:54.856Z,31.90
2018-02-18T08:34:54.850Z,31.30
2018-02-18T08:35:54.840Z,31.30
2018-02-18T08:36:54.948Z,31.50
2018-02-18T08:37:54.837Z,31.70
2018-02-18T08:38:54.843Z,31.10
2018-02-18T08:39:54.811Z,31.00
2018-02-18T08:40:54.863Z,31.30
2018-02-18T08:41:54.801Z,30.60
2018-02-18T08:42:54.903Z,30.60
2018-02-18T08:43:54.794Z,30.50
2018-02-18T08:44:54.781Z,29.70
2018-02-18T08:45:54.792Z,30.30
2018-02-18T08:46:54.770Z,30.80
2018-02-18T08:47:54.767Z,30.50
2018-02-18T08:48:54.757Z,29.60
2018-02-18T08:49:54.749Z,28.80
2018-02-18T08:50:54.750Z,30.00
2018-02-18T08:51:54.749Z,29.00
2018-02-18T08:52:54.736Z,29.50
2018-02-18T08:53:54.729Z,30.20
2018-02-18T08:54:54.728Z,31.00
2018-02-18T08:55:54.728Z,31.10
2018-02-18T08:56:54.712Z,29.10
2018-02-18T08:57:54.717Z,29.50
2018-02-18T08:58:54.701Z,29.20
2018-02-18T08:59:54.697Z,28.60
2018-02-18T09:00:54.691Z,27.30
2018-02-18T09:01:54.693Z,27.00
2018-02-18T09:02:54.682Z,28.40
2018-02-18T09:03:54.672Z,27.20
2018-02-18T09:04:54.668Z,27.40
2018-02-18T09:05:54.663Z,28.50
2018-02-18T09:06:54.659Z,27.10
2018-02-18T09:07:54.652Z,27.00
2018-02-18T09:08:54.642Z,26.90
2018-02-18T09:09:54.638Z,27.20
2018-02-18T09:10:54.632Z,27.00
2018-02-18T09:11:54.693Z,27.30
2018-02-18T09:12:54.622Z,26.20
2018-02-18T09:13:54.624Z,25.70
2018-02-18T09:14:54.609Z,25.80
2018-02-18T09:15:54.651Z,25.60
2018-02-18T09:16:54.602Z,25.50
2018-02-18T09:17:54.646Z,26.10
2018-02-18T09:18:54.591Z,24.60
2018-02-18T09:19:54.578Z,25.10
2018-02-18T09:20:54.581Z,24.70
2018-02-18T09:21:54.568Z,23.90
2018-02-18T09:22:54.563Z,25.00
2018-02-18T09:23:54.561Z,24.50
2018-02-18T09:24:54.549Z,25.00
2018-02-18T09:25:54.595Z,24.60
2018-02-18T09:26:54.545Z,25.20
2018-02-18T09:27:54.540Z,24.10
2018-02-18T09:28:54.530Z,24.60
2018-02-18T09:29:54.534Z,24.20
2018-02-18T09:30:54.530Z,24.10
2018-02-18T09:31:54.515Z,26.20
2018-02-18T09:32:54.509Z,24.80
2018-02-18T09:33:54.504Z,23.40
2018-02-18T09:34:54.513Z,25.50
2018-02-18T09:35:54.501Z,25.20
2018-02-18T09:36:54.492Z,25.30
2018-02-18T09:37:54.484Z,24.60
2018-02-18T09:38:54.479Z,25.40
2018-02-18T09:39:54.476Z,24.10
2018-02-18T09:40:54.466Z,25.30
2018-02-18T09:41:54.476Z,24.10
2018-02-18T09:42:54.548Z,24.70
2018-02-18T09:43:54.453Z,25.50
2018-02-18T09:44:54.450Z,25.00
2018-02-18T09:45:54.485Z,24.30
2018-02-18T09:46:54.504Z,24.00
2018-02-18T09:47:54.430Z,24.00
2018-02-18T09:48:54.479Z,25.00
2018-02-18T09:49:54.427Z,24.40
2018-02-18T09:50:54.421Z,24.00
2018-02-18T09:51:54.415Z,24.20
2018-02-18T09:52:54.406Z,24.00
2018-02-18T09:53:54.402Z,24.30
2018-02-18T09:54:54.390Z,23.90
2018-02-18T09:55:54.388Z,24.80
2018-02-18T09:56:54.380Z,24.50
2018-02-18T09:57:54.384Z,24.30
2018-02-18T09:58:54.370Z,24.00
2018-02-18T09:59:54.365Z,23.40
2018-02-18T10:00:54.356Z,23.80
2018-02-18T10:01:54.353Z,23.90
2018-02-18T10:02:54.340Z,24.10
2018-02-18T10:03:54.333Z,24.20
2018-02-18T10:04:54.332Z,24.10
2018-02-18T10:05:54.319Z,24.10
2018-02-18T10:06:54.316Z,23.80
2018-02-18T10:07:54.334Z,23.40
2018-02-18T10:08:54.309Z,23.30
2018-02-18T10:09:54.295Z,23.80
2018-02-18T10:10:54.292Z,23.30
2018-02-18T10:11:54.286Z,23.00
2018-02-18T10:12:54.287Z,23.90
2018-02-18T10:13:54.270Z,24.30
2018-02-18T10:14:54.267Z,23.70
2018-02-18T10:15:54.260Z,22.40
2018-02-18T10:16:54.246Z,23.50
2018-02-18T10:17:54.236Z,25.10
2018-02-18T10:18:54.230Z,24.50
2018-02-18T10:19:54.221Z,24.10
2018-02-18T10:20:54.221Z,24.50
2018-02-18T10:21:54.210Z,23.10
2018-02-18T10:22:54.200Z,24.10
2018-02-18T10:23:54.188Z,34.80
2018-02-18T10:24:54.181Z,25.40
2018-02-18T10:25:54.191Z,22.70
2018-02-18T10:26:54.174Z,21.90
2018-02-18T10:27:54.157Z,24.00
2018-02-18T10:28:54.152Z,23.20
2018-02-18T10:29:54.143Z,23.80
2018-02-18T10:30:54.134Z,24.80
2018-02-18T10:31:54.132Z,24.60
2018-02-18T10:32:54.112Z,24.20
2018-02-18T10:33:54.108Z,23.40
2018-02-18T10:34:54.108Z,24.50
2018-02-18T10:35:54.093Z,24.30
2018-02-18T10:36:54.073Z,23.30
2018-02-18T10:37:54.067Z,23.20
2018-02-18T10:38:54.063Z,23.10
2018-02-18T10:39:54.057Z,25.20
2018-02-18T10:40:54.041Z,24.10
2018-02-18T10:41:54.078Z,25.50
2018-02-18T10:42:54.025Z,25.10
2018-02-18T10:43:54.016Z,22.80
2018-02-18T10:44:54.010Z,23.50
2018-02-18T10:45:54.001Z,24.70
2018-02-18T10:46:53.994Z,23.40
2018-02-18T10:47:53.984Z,23.40
2018-02-18T10:48:53.967Z,23.00
2018-02-18T10:49:53.952Z,24.00
2018-02-18T10:50:53.952Z,23.50
2018-02-18T10:51:53.938Z,23.90
2018-02-18T10:52:53.925Z,24.20
2018-02-18T10:53:53.919Z,24.40
2018-02-18T10:54:53.913Z,24.20
2018-02-18T10:55:53.894Z,23.50
2018-02-18T10:56:53.881Z,24.30
2018-02-18T10:57:53.870Z,24.20
2018-02-18T10:58:53.871Z,24.30
2018-02-18T10:59:53.869Z,23.60
2018-02-18T11:00:53.849Z,23.20
2018-02-18T11:01:53.836Z,23.30
2018-02-18T11:02:53.824Z,24.90
2018-02-18T11:03:53.824Z,22.30
2018-02-18T11:04:53.804Z,24.40
2018-02-18T11:05:53.803Z,22.60
2018-02-18T11:06:53.780Z,23.30
2018-02-18T11:07:53.773Z,24.60
2018-02-18T11:08:53.763Z,25.00
2018-02-18T11:09:53.750Z,25.00
2018-02-18T11:10:53.801Z,25.80
2018-02-18T11:11:53.728Z,24.80
2018-02-18T11:12:53.813Z,25.10
2018-02-18T11:13:53.709Z,23.20
2018-02-18T11:14:53.728Z,23.90
2018-02-18T11:15:53.688Z,23.80
2018-02-18T11:16:53.683Z,27.00
2018-02-18T11:17:53.669Z,24.30
2018-02-18T11:18:53.658Z,24.70
2018-02-18T11:19:53.650Z,24.10
2018-02-18T11:20:53.641Z,23.60
2018-02-18T11:21:53.631Z,22.60
2018-02-18T11:22:53.716Z,23.60
2018-02-18T11:23:53.612Z,24.60
2018-02-18T11:24:53.647Z,23.00
2018-02-18T11:25:53.590Z,23.60
2018-02-18T11:26:53.672Z,23.30
2018-02-18T11:27:53.561Z,23.20
2018-02-18T11:28:53.566Z,23.50
2018-02-18T11:29:53.575Z,23.70
2018-02-18T11:30:53.580Z,23.20
2018-02-18T11:31:53.522Z,23.70
2018-02-18T11:32:53.608Z,23.20
2018-02-18T11:33:53.514Z,23.50
2018-02-18T11:34:53.511Z,23.20
2018-02-18T11:35:53.487Z,22.50
2018-02-18T11:36:53.464Z,24.40
2018-02-18T11:37:53.461Z,22.20
2018-02-18T11:38:53.450Z,23.50
2018-02-18T11:39:53.432Z,24.50
2018-02-18T11:40:53.435Z,22.90
2018-02-18T11:41:53.412Z,22.60
2018-02-18T11:42:53.395Z,23.70
2018-02-18T11:43:53.386Z,23.20
2018-02-18T11:44:53.382Z,23.90
2018-02-18T11:45:53.377Z,23.70
2018-02-18T11:46:53.352Z,24.00
2018-02-18T11:47:53.345Z,24.00
2018-02-18T11:48:53.331Z,23.90
2018-02-18T11:49:53.325Z,24.40
2018-02-18T11:50:53.322Z,24.70
2018-02-18T11:51:53.300Z,23.30
2018-02-18T11:52:53.282Z,23.70
2018-02-18T11:53:53.270Z,23.40
2018-02-18T11:54:53.259Z,23.30
2018-02-18T11:55:53.251Z,22.90
2018-02-18T11:56:53.242Z,24.10
2018-02-18T11:57:53.232Z,23.10
2018-02-18T11:58:53.220Z,23.80
2018-02-18T11:59:53.201Z,24.00
2018-02-18T12:00:53.192Z,24.00
2018-02-18T12:01:53.178Z,24.60
2018-02-18T12:02:53.174Z,24.10
2018-02-18T12:03:53.172Z,22.90
2018-02-18T12:04:53.141Z,24.20
2018-02-18T12:05:53.133Z,23.90
2018-02-18T12:06:53.121Z,24.70
2018-02-18T12:07:53.112Z,24.50
2018-02-18T12:08:53.102Z,25.10
2018-02-18T12:09:53.089Z,24.00
2018-02-18T12:10:53.081Z,23.40
2018-02-18T12:11:53.095Z,24.50
2018-02-18T12:12:53.053Z,23.60
2018-02-18T12:13:53.044Z,23.40
2018-02-18T12:14:53.036Z,23.80
2018-02-18T12:15:53.025Z,22.90
2018-02-18T12:16:53.005Z,23.30
2018-02-18T12:17:53.001Z,24.40
2018-02-18T12:18:52.984Z,24.10
2018-02-18T12:19:52.971Z,25.20
2018-02-18T12:20:52.960Z,24.80
2018-02-18T12:21:52.948Z,23.90
2018-02-18T12:22:52.939Z,24.40
2018-02-18T12:23:52.923Z,25.00
2018-02-18T12:24:52.913Z,22.90
2018-02-18T12:25:52.898Z,24.50
2018-02-18T12:26:52.899Z,23.00
2018-02-18T12:27:52.881Z,23.90
2018-02-18T12:28:52.869Z,23.20
2018-02-18T12:29:52.863Z,24.60
2018-02-18T12:30:52.843Z,23.30
2018-02-18T12:31:52.837Z,22.70
2018-02-18T12:32:52.818Z,22.90
2018-02-18T12:33:52.801Z,23.00
2018-02-18T12:34:52.795Z,23.70
2018-02-18T12:35:52.783Z,23.60
2018-02-18T12:36:52.767Z,24.00
2018-02-18T12:37:52.762Z,23.90
2018-02-18T12:38:52.741Z,23.90
2018-02-18T12:39:52.731Z,24.10
2018-02-18T12:40:52.725Z,23.80
2018-02-18T12:41:52.712Z,24.00
2018-02-18T12:42:52.705Z,24.90
2018-02-18T12:43:52.683Z,24.40
2018-02-18T12:44:52.675Z,22.50
2018-02-18T12:45:52.676Z,23.20
2018-02-18T12:46:52.646Z,23.20
2018-02-18T12:47:52.633Z,21.00
2018-02-18T12:48:52.631Z,21.40
2018-02-18T12:49:52.606Z,23.50
2018-02-18T12:50:52.593Z,23.40
2018-02-18T12:51:52.585Z,22.00